Weather at Richmond International Airport

Public forecast

Using degrees Fahrenheit for public forecast. Weather courtesy of forecast.io.

Current aviation weather report (METAR) for Richmond International Airport

Retrieved 2021/12/08 13:05 UTC (16 minutes ago):

KRIC 081305Z 01004KT 10SM -PLRA OVC065 03/M01 A3006

Aviation forecast (TAF) for Richmond International Airport

Retrieved 2021/12/08 12:30 UTC (51 minutes ago):

TAF KRIC 081129Z 0812/0912 05005KT P6SM -RA OVC050 FM081500 VRB04KT 6SM -RA OVC020 FM081800 36004KT P6SM OVC025 FM082100 33004KT P6SM BKN070 FM090400 32005KT P6SM SKC